Time;durP1;ratioP1;P1;durP2;ratioP2;P2;SDS_P1;SDS_P2;PMS_P1;PMS_P2;Temp;Humidity;BMP_temperature;BMP_pressure;BME280_temperature;BME280_humidity;BME280_pressure;Samples;Min_cycle;Max_cycle;Signal;HPM_P1;HPM_P2
2020/12/16 00:00:23;;;;;;;4.10;2.45;;;21.10;50.80;;;;;;5030162;28;20029;-50
2020/12/16 00:02:49;;;;;;;2.28;1.75;;;21.00;50.80;;;;;;5028924;28;20033;-46
2020/12/16 00:05:15;;;;;;;3.10;1.95;;;21.00;50.80;;;;;;5030493;28;20743;-50
2020/12/16 00:07:41;;;;;;;3.30;2.17;;;21.00;50.70;;;;;;5029109;28;20033;-55
2020/12/16 00:10:10;;;;;;;4.30;2.50;;;21.10;50.80;;;;;;5029072;28;20030;-36
2020/12/16 00:12:40;;;;;;;2.38;1.73;;;21.00;50.70;;;;;;5025344;28;20471;-47
2020/12/16 00:15:07;;;;;;;2.25;1.58;;;21.00;50.60;;;;;;5026768;28;20656;-46
2020/12/16 00:17:33;;;;;;;3.70;1.80;;;21.00;50.60;;;;;;5029122;28;20754;-37
2020/12/16 00:19:59;;;;;;;3.28;1.88;;;21.00;50.60;;;;;;5028934;28;20397;-40
2020/12/16 00:22:25;;;;;;;4.18;1.80;;;21.00;50.60;;;;;;5029840;28;20102;-45
2020/12/16 00:24:50;;;;;;;2.95;1.95;;;21.00;50.50;;;;;;5029390;28;20033;-45
2020/12/16 00:27:16;;;;;;;2.63;1.60;;;20.90;50.40;;;;;;5029668;28;20021;-47
2020/12/16 00:29:42;;;;;;;3.67;2.10;;;21.00;50.50;;;;;;5030766;28;20473;-56
2020/12/16 00:32:08;;;;;;;4.00;1.65;;;21.00;50.40;;;;;;5030272;28;20053;-44
2020/12/16 00:34:34;;;;;;;2.92;1.70;;;20.90;50.30;;;;;;5030547;28;20441;-44
2020/12/16 00:36:59;;;;;;;2.53;1.73;;;20.90;50.30;;;;;;5030553;28;20033;-41
2020/12/16 00:39:25;;;;;;;3.03;1.98;;;20.90;50.30;;;;;;5031058;28;20466;-39
2020/12/16 00:41:50;;;;;;;3.17;1.67;;;20.90;50.20;;;;;;5028986;28;20437;-42
2020/12/16 00:44:16;;;;;;;3.10;1.73;;;20.90;50.20;;;;;;5030866;28;20021;-42
2020/12/16 00:46:42;;;;;;;2.75;1.80;;;20.90;50.10;;;;;;5030691;28;20025;-54
2020/12/16 00:49:08;;;;;;;3.42;2.10;;;20.90;50.10;;;;;;5033222;28;20060;-36
2020/12/16 00:51:33;;;;;;;2.30;1.63;;;20.90;50.10;;;;;;5034760;28;20033;-44
2020/12/16 00:53:59;;;;;;;2.15;1.67;;;20.90;50.10;;;;;;5033592;28;20033;-43
2020/12/16 00:56:25;;;;;;;1.88;1.35;;;20.90;50.10;;;;;;5034408;28;20087;-47
2020/12/16 00:58:50;;;;;;;2.50;1.80;;;20.90;50.00;;;;;;5033257;28;20026;-43
2020/12/16 01:01:16;;;;;;;2.70;1.83;;;20.90;50.00;;;;;;5034767;28;20030;-47
2020/12/16 01:03:42;;;;;;;2.95;1.70;;;20.90;49.90;;;;;;5041864;28;20079;-46
2020/12/16 01:06:08;;;;;;;4.25;2.28;;;20.90;49.90;;;;;;5033628;28;20383;-42
2020/12/16 01:08:33;;;;;;;2.10;1.70;;;20.90;49.90;;;;;;5033995;28;20391;-38
2020/12/16 01:10:59;;;;;;;3.47;1.38;;;20.90;49.80;;;;;;5033165;28;20105;-38
2020/12/16 01:13:25;;;;;;;2.55;1.60;;;20.90;49.80;;;;;;5033396;28;20033;-41
2020/12/16 01:15:50;;;;;;;2.05;1.45;;;20.90;49.80;;;;;;5033074;28;20038;-40
2020/12/16 01:18:16;;;;;;;2.60;1.77;;;20.80;49.80;;;;;;5049370;28;20029;-40
2020/12/16 01:20:42;;;;;;;3.42;1.70;;;20.80;49.80;;;;;;5033629;28;20033;-48
2020/12/16 01:23:08;;;;;;;2.25;1.80;;;20.80;49.80;;;;;;5033056;28;20048;-40
2020/12/16 01:25:34;;;;;;;3.42;1.70;;;20.90;49.90;;;;;;5033694;28;20036;-43
2020/12/16 01:28:00;;;;;;;2.88;1.88;;;20.80;49.80;;;;;;5032763;28;20467;-47
2020/12/16 01:30:27;;;;;;;2.85;1.70;;;20.80;49.80;;;;;;5033850;28;20072;-42
2020/12/16 01:32:55;;;;;;;2.92;1.67;;;20.80;49.70;;;;;;5032593;28;20045;-40
2020/12/16 01:35:22;;;;;;;2.25;1.77;;;20.80;49.80;;;;;;5032147;28;20455;-40
2020/12/16 01:37:47;;;;;;;2.95;2.00;;;20.80;50.30;;;;;;5032672;28;20100;-57
2020/12/16 01:40:16;;;;;;;2.08;1.58;;;20.80;49.60;;;;;;5033777;28;20120;-41
2020/12/16 01:42:42;;;;;;;2.42;1.80;;;20.80;49.60;;;;;;5032846;28;20021;-42
2020/12/16 01:45:12;;;;;;;2.30;1.60;;;20.80;49.70;;;;;;5032644;28;20025;-38
2020/12/16 01:47:37;;;;;;;3.22;1.70;;;20.80;49.60;;;;;;5031930;28;20057;-41
2020/12/16 01:50:05;;;;;;;2.75;1.80;;;20.80;49.60;;;;;;5032223;28;20072;-40
2020/12/16 01:52:31;;;;;;;3.75;1.50;;;20.80;49.60;;;;;;5033430;28;20463;-49
2020/12/16 01:54:59;;;;;;;2.22;1.52;;;20.80;49.60;;;;;;5031912;28;20029;-38
2020/12/16 01:57:25;;;;;;;2.97;1.50;;;20.80;49.60;;;;;;5032130;28;20083;-42
2020/12/16 01:59:52;;;;;;;2.20;1.58;;;20.80;49.50;;;;;;5031047;28;20029;-49
2020/12/16 02:02:19;;;;;;;2.92;1.90;;;20.80;49.50;;;;;;5032914;28;20087;-39
2020/12/16 02:04:47;;;;;;;2.83;1.58;;;20.80;49.50;;;;;;5032950;28;20033;-60
2020/12/16 02:07:14;;;;;;;2.78;1.70;;;20.80;49.50;;;;;;5032378;28;20029;-44
2020/12/16 02:09:45;;;;;;;2.08;1.63;;;20.80;49.50;;;;;;5033096;28;20061;-42
2020/12/16 02:12:15;;;;;;;2.35;1.50;;;20.80;49.50;;;;;;5032357;28;20083;-39
2020/12/16 02:14:42;;;;;;;2.05;1.60;;;20.80;49.40;;;;;;5032318;28;20034;-42
2020/12/16 02:17:08;;;;;;;2.22;1.35;;;20.70;49.40;;;;;;5032117;28;20029;-46
2020/12/16 02:19:46;;;;;;;3.00;1.85;;;20.70;49.30;;;;;;5032775;28;20059;-49
2020/12/16 02:22:12;;;;;;;1.63;1.33;;;20.70;49.40;;;;;;5031990;28;20028;-39
2020/12/16 02:24:54;;;;;;;2.70;1.83;;;20.80;49.40;;;;;;5031172;28;20120;-41
2020/12/16 02:27:19;;;;;;;2.23;1.43;;;20.80;49.40;;;;;;5029378;28;20029;-35
2020/12/16 02:29:45;;;;;;;2.10;1.60;;;20.70;49.30;;;;;;5032843;28;20025;-43
2020/12/16 02:32:14;;;;;;;1.73;1.58;;;20.70;49.30;;;;;;5031607;28;20125;-47
2020/12/16 02:34:40;;;;;;;2.00;1.60;;;20.70;49.30;;;;;;5032445;28;20453;-35
2020/12/16 02:37:05;;;;;;;1.98;1.48;;;20.70;49.30;;;;;;5031368;28;20113;-48
2020/12/16 02:39:31;;;;;;;2.00;1.50;;;20.70;49.20;;;;;;5032593;28;20417;-39
2020/12/16 02:42:01;;;;;;;2.70;1.90;;;20.80;49.30;;;;;;5031681;28;20108;-41
2020/12/16 02:44:27;;;;;;;2.03;1.63;;;20.70;49.20;;;;;;5032110;28;20033;-44
2020/12/16 02:46:57;;;;;;;2.00;1.40;;;20.70;49.20;;;;;;5031745;28;20464;-41
2020/12/16 02:49:22;;;;;;;1.60;1.30;;;20.80;49.30;;;;;;5032045;28;20112;-43
2020/12/16 02:51:48;;;;;;;2.38;1.35;;;20.70;49.20;;;;;;5031722;28;20101;-56
2020/12/16 02:54:14;;;;;;;2.55;1.45;;;20.70;49.30;;;;;;5031656;28;20030;-50
2020/12/16 02:56:40;;;;;;;1.60;1.30;;;20.70;49.90;;;;;;5031530;28;20065;-41
2020/12/16 02:59:05;;;;;;;2.28;1.40;;;20.70;49.20;;;;;;5031347;28;20152;-43
2020/12/16 03:01:31;;;;;;;2.90;1.70;;;20.70;49.20;;;;;;5030806;28;20069;-40
2020/12/16 03:03:57;;;;;;;1.85;1.40;;;20.70;49.20;;;;;;5029354;28;20037;-42
2020/12/16 03:06:23;;;;;;;2.33;1.80;;;20.70;49.20;;;;;;5031784;28;20029;-38
2020/12/16 03:08:48;;;;;;;1.80;1.35;;;20.70;49.20;;;;;;5031384;28;20026;-56
2020/12/16 03:11:18;;;;;;;1.60;1.10;;;20.70;49.20;;;;;;5031284;28;20029;-41
2020/12/16 03:13:44;;;;;;;2.17;1.60;;;20.70;49.10;;;;;;5030337;28;20037;-40
2020/12/16 03:16:09;;;;;;;1.92;1.48;;;20.70;49.10;;;;;;5046357;28;20026;-42
2020/12/16 03:18:35;;;;;;;1.40;1.25;;;20.70;49.10;;;;;;5031322;28;20025;-41
2020/12/16 03:21:01;;;;;;;1.55;1.45;;;20.70;49.20;;;;;;5030934;28;20033;-40
2020/12/16 03:23:26;;;;;;;2.47;1.58;;;20.70;49.10;;;;;;5031277;28;20033;-41
2020/12/16 03:25:52;;;;;;;2.13;1.50;;;20.70;49.10;;;;;;5030067;28;20025;-57
2020/12/16 03:28:18;;;;;;;2.22;1.65;;;20.70;49.10;;;;;;5030457;28;20105;-38
2020/12/16 03:30:43;;;;;;;2.28;1.52;;;20.70;49.10;;;;;;5046944;28;20035;-41
2020/12/16 03:33:09;;;;;;;2.63;1.50;;;20.60;49.00;;;;;;5030709;28;20079;-41
2020/12/16 03:35:34;;;;;;;3.15;1.30;;;20.70;49.10;;;;;;5031728;28;20076;-49
2020/12/16 03:38:00;;;;;;;1.88;1.30;;;20.70;49.10;;;;;;5029978;28;20112;-41
2020/12/16 03:40:26;;;;;;;2.50;1.80;;;20.60;49.00;;;;;;5031162;28;20108;-35
2020/12/16 03:42:51;;;;;;;2.17;1.60;;;20.70;49.10;;;;;;5030644;28;20048;-56
2020/12/16 03:45:17;;;;;;;2.97;1.40;;;20.70;49.00;;;;;;5031385;28;20083;-37
2020/12/16 03:47:43;;;;;;;1.83;1.15;;;20.70;49.00;;;;;;5030614;28;20061;-42
2020/12/16 03:50:08;;;;;;;2.25;1.58;;;20.70;49.00;;;;;;5030533;28;20030;-40
2020/12/16 03:52:34;;;;;;;2.88;1.50;;;20.60;49.00;;;;;;5031149;28;20034;-46
2020/12/16 03:54:59;;;;;;;1.77;1.60;;;20.60;49.00;;;;;;5030218;28;20034;-35
2020/12/16 03:57:25;;;;;;;1.92;1.60;;;20.70;49.10;;;;;;5030930;28;20810;-40
2020/12/16 03:59:51;;;;;;;2.35;1.58;;;20.60;49.00;;;;;;5030761;28;20021;-56
2020/12/16 04:02:16;;;;;;;2.50;1.60;;;20.70;49.00;;;;;;5030603;28;20034;-37
2020/12/16 04:04:42;;;;;;;2.35;1.58;;;20.70;49.00;;;;;;5031364;28;20374;-42
2020/12/16 04:07:07;;;;;;;1.92;1.60;;;20.60;49.00;;;;;;5029882;28;20061;-45
2020/12/16 04:09:33;;;;;;;2.70;1.80;;;20.70;49.00;;;;;;5030889;28;20037;-39
2020/12/16 04:11:59;;;;;;;1.95;1.52;;;20.70;49.00;;;;;;5030443;28;20036;-40
2020/12/16 04:14:24;;;;;;;2.80;1.67;;;20.70;49.00;;;;;;5030818;28;20047;-45
2020/12/16 04:16:50;;;;;;;2.00;1.30;;;20.70;49.00;;;;;;5030275;28;20017;-55
2020/12/16 04:19:16;;;;;;;3.50;1.50;;;20.60;48.90;;;;;;5030886;28;20075;-40
2020/12/16 04:21:42;;;;;;;1.90;1.48;;;20.60;48.90;;;;;;5031025;28;20029;-42
2020/12/16 04:24:07;;;;;;;1.98;1.40;;;20.70;48.90;;;;;;5033842;28;20037;-41
2020/12/16 04:26:33;;;;;;;1.70;1.38;;;20.60;48.90;;;;;;5034465;28;20025;-48
2020/12/16 04:28:58;;;;;;;2.00;1.60;;;20.70;48.90;;;;;;5024682;28;20025;-41
2020/12/16 04:31:24;;;;;;;3.10;1.70;;;20.60;48.80;;;;;;5034685;28;20056;-41
2020/12/16 04:33:50;;;;;;;3.63;1.45;;;20.70;48.90;;;;;;5034637;28;20038;-53
2020/12/16 04:36:15;;;;;;;1.67;1.38;;;20.70;48.90;;;;;;5034319;28;20036;-36
2020/12/16 04:38:41;;;;;;;2.78;1.42;;;20.70;48.90;;;;;;5034629;28;20032;-46
2020/12/16 04:41:09;;;;;;;3.85;1.45;;;20.70;48.80;;;;;;5033904;28;20030;-43
2020/12/16 04:43:42;;;;;;;2.75;1.67;;;20.60;48.80;;;;;;5034766;28;20029;-40
2020/12/16 04:46:13;;;;;;;2.40;1.90;;;20.70;48.90;;;;;;5033466;28;20108;-41
2020/12/16 04:48:39;;;;;;;2.67;1.50;;;20.70;48.90;;;;;;5034931;28;20025;-41
2020/12/16 04:51:06;;;;;;;3.08;1.73;;;20.70;48.80;;;;;;5033673;28;20390;-39
2020/12/16 04:53:35;;;;;;;2.85;1.73;;;20.70;48.80;;;;;;5034474;28;20041;-41
2020/12/16 04:56:01;;;;;;;2.25;1.42;;;20.70;48.80;;;;;;5033629;28;20110;-42
2020/12/16 04:58:27;;;;;;;2.20;1.58;;;20.70;48.80;;;;;;5034284;28;20064;-43
2020/12/16 05:00:52;;;;;;;1.70;1.30;;;20.60;48.70;;;;;;5034091;28;20053;-57
2020/12/16 05:03:18;;;;;;;2.15;1.55;;;20.70;48.70;;;;;;5033674;28;20037;-35
2020/12/16 05:05:43;;;;;;;2.17;1.67;;;20.70;48.70;;;;;;5032940;28;20040;-42
2020/12/16 05:08:17;;;;;;;2.78;1.60;;;20.70;48.60;;;;;;5033480;28;20035;-37
2020/12/16 05:10:47;;;;;;;1.65;1.55;;;20.70;48.60;;;;;;5034096;28;20039;-39
2020/12/16 05:13:18;;;;;;;2.35;1.58;;;20.70;48.60;;;;;;5033770;28;20223;-46
2020/12/16 05:15:46;;;;;;;2.40;1.63;;;20.70;48.70;;;;;;5026341;28;20038;-42
2020/12/16 05:18:23;;;;;;;3.17;1.50;;;20.70;48.60;;;;;;5033476;28;20034;-42
2020/12/16 05:20:56;;;;;;;1.98;1.70;;;20.70;48.60;;;;;;5025507;28;20033;-40
2020/12/16 05:23:27;;;;;;;1.92;1.67;;;20.70;48.60;;;;;;5033780;28;20429;-41
2020/12/16 05:26:05;;;;;;;1.80;1.30;;;20.70;48.60;;;;;;5032974;28;20053;-57
2020/12/16 05:28:40;;;;;;;2.13;1.60;;;20.70;48.60;;;;;;5033734;28;20026;-40
2020/12/16 05:31:13;;;;;;;2.33;1.58;;;20.70;48.50;;;;;;5032749;28;20037;-37
2020/12/16 05:33:44;;;;;;;1.92;1.55;;;20.70;49.10;;;;;;5033145;28;20033;-41
2020/12/16 05:36:11;;;;;;;2.10;1.40;;;20.70;48.40;;;;;;5032838;28;20211;-41
2020/12/16 05:38:53;;;;;;;2.25;1.40;;;20.70;48.40;;;;;;5033891;28;20025;-41
2020/12/16 05:41:25;;;;;;;3.85;1.50;;;20.70;48.50;;;;;;5032877;28;20033;-41
2020/12/16 05:43:51;;;;;;;1.50;1.40;;;20.70;48.40;;;;;;5033627;28;20462;-41
2020/12/16 05:46:25;;;;;;;1.70;1.40;;;20.70;48.30;;;;;;5033001;28;20044;-45
2020/12/16 05:48:51;;;;;;;1.80;1.50;;;20.70;48.30;;;;;;5026209;28;20048;-41
2020/12/16 05:51:17;;;;;;;1.73;1.58;;;20.70;48.30;;;;;;5032464;28;20588;-40
2020/12/16 05:53:43;;;;;;;3.08;1.42;;;20.70;48.30;;;;;;5033133;28;20096;-41
2020/12/16 05:56:09;;;;;;;1.85;1.50;;;20.70;48.30;;;;;;5032127;28;20390;-43
2020/12/16 05:58:35;;;;;;;1.83;1.60;;;20.70;48.30;;;;;;5033068;28;20035;-42
2020/12/16 06:01:06;;;;;;;2.08;1.60;;;20.70;48.30;;;;;;5031744;28;20026;-39
2020/12/16 06:03:33;;;;;;;2.60;2.05;;;20.70;48.30;;;;;;5048515;28;20148;-40
2020/12/16 06:06:04;;;;;;;2.05;1.50;;;20.70;48.30;;;;;;5032027;28;20113;-39
2020/12/16 06:08:42;;;;;;;3.23;1.50;;;20.70;48.20;;;;;;5033228;28;20506;-40
2020/12/16 06:11:12;;;;;;;1.83;1.65;;;20.70;48.20;;;;;;5031897;28;20355;-39
2020/12/16 06:13:44;;;;;;;1.77;1.45;;;20.70;48.20;;;;;;5031756;28;20033;-39
2020/12/16 06:16:10;;;;;;;2.38;1.60;;;20.70;48.20;;;;;;5032053;28;20021;-47
2020/12/16 06:18:43;;;;;;;3.08;1.25;;;20.70;48.20;;;;;;5032455;28;20045;-37
2020/12/16 06:21:11;;;;;;;3.08;1.40;;;20.70;48.10;;;;;;5032161;28;20112;-40
2020/12/16 06:23:42;;;;;;;2.78;1.60;;;20.70;48.10;;;;;;5023390;28;20117;-43
2020/12/16 06:26:19;;;;;;;2.63;1.67;;;20.80;48.10;;;;;;5031701;28;20041;-37
2020/12/16 06:28:45;;;;;;;3.38;1.98;;;20.70;48.00;;;;;;5032854;28;20076;-39
2020/12/16 06:31:43;;;;;;;2.30;2.00;;;20.70;48.00;;;;;;5031421;28;20052;-45
2020/12/16 06:34:14;;;;;;;4.00;2.22;;;20.70;48.00;;;;;;5023520;28;20053;-43
2020/12/16 06:36:41;;;;;;;1.90;1.50;;;20.70;48.00;;;;;;5032203;28;20026;-38
2020/12/16 06:39:14;;;;;;;2.75;1.70;;;20.70;48.00;;;;;;5031674;28;20456;-44
2020/12/16 06:41:51;;;;;;;1.98;1.75;;;20.70;48.00;;;;;;5031809;28;20022;-52
2020/12/16 06:44:16;;;;;;;3.13;2.17;;;20.70;48.00;;;;;;5024770;28;20654;-35
2020/12/16 06:46:45;;;;;;;3.20;1.85;;;20.70;48.00;;;;;;5031782;28;20108;-40
2020/12/16 06:49:22;;;;;;;2.22;1.58;;;20.80;48.00;;;;;;5031323;28;20067;-40
2020/12/16 06:51:50;;;;;;;2.97;1.88;;;20.80;48.00;;;;;;5032190;28;20461;-41
2020/12/16 06:54:26;;;;;;;3.15;2.03;;;20.80;48.10;;;;;;5031192;28;20112;-39
2020/12/16 06:57:16;;;;;;;4.82;2.00;;;20.80;48.00;;;;;;5031975;28;20045;-44
2020/12/16 06:59:45;;;;;;;5.10;1.80;;;20.80;48.10;;;;;;5032253;28;20459;-36
2020/12/16 07:02:13;;;;;;;3.53;1.75;;;20.80;48.20;;;;;;5029763;28;20041;-43
2020/12/16 07:04:39;;;;;;;2.65;1.80;;;20.80;48.20;;;;;;5031619;28;20041;-41
2020/12/16 07:07:05;;;;;;;5.53;2.03;;;20.80;48.20;;;;;;5030797;28;20029;-41
2020/12/16 07:09:34;;;;;;;4.40;1.90;;;20.80;48.20;;;;;;5031917;28;20482;-41
2020/12/16 07:12:01;;;;;;;4.97;1.75;;;20.80;48.20;;;;;;5030989;28;20034;-53
2020/12/16 07:14:34;;;;;;;1.90;1.70;;;20.80;48.10;;;;;;5031632;28;20106;-37
2020/12/16 07:17:10;;;;;;;3.17;1.50;;;20.80;48.10;;;;;;5031195;28;20021;-55
2020/12/16 07:19:37;;;;;;;2.40;1.45;;;20.80;48.10;;;;;;5031671;28;20025;-34
2020/12/16 07:22:24;;;;;;;4.10;1.98;;;20.80;48.10;;;;;;5030761;28;20154;-43
2020/12/16 07:24:51;;;;;;;2.75;2.05;;;20.80;48.10;;;;;;5031646;28;20044;-40
2020/12/16 07:27:20;;;;;;;2.08;1.50;;;20.80;48.10;;;;;;5030831;28;20032;-34
2020/12/16 07:29:53;;;;;;;2.50;2.17;;;20.80;48.10;;;;;;5031522;28;20108;-52
2020/12/16 07:32:22;;;;;;;1.92;1.52;;;20.80;48.10;;;;;;5030036;28;20049;-45
2020/12/16 07:34:57;;;;;;;4.03;1.60;;;20.80;48.00;;;;;;5031210;28;20347;-41
2020/12/16 07:37:25;;;;;;;3.03;1.92;;;20.80;48.00;;;;;;5030827;28;20132;-45
2020/12/16 07:40:22;;;;;;;6.03;1.83;;;20.80;48.00;;;;;;5031491;28;20044;-51
2020/12/16 07:42:49;;;;;;;2.70;1.70;;;20.70;47.90;;;;;;5031298;28;20049;-38
2020/12/16 07:45:15;;;;;;;3.53;2.55;;;20.80;48.00;;;;;;5030829;28;20037;-42
2020/12/16 07:47:42;;;;;;;2.20;1.65;;;20.80;48.00;;;;;;5031819;28;20021;-41
2020/12/16 07:50:11;;;;;;;2.65;1.60;;;20.70;48.00;;;;;;5030396;28;20033;-42
2020/12/16 07:52:37;;;;;;;2.13;1.60;;;20.80;48.00;;;;;;5030751;28;20505;-40
2020/12/16 07:55:03;;;;;;;2.63;1.52;;;20.80;48.00;;;;;;5030617;28;20037;-57
2020/12/16 07:57:30;;;;;;;5.22;1.83;;;20.80;47.90;;;;;;5034023;28;20033;-49
2020/12/16 07:59:57;;;;;;;2.25;1.60;;;20.80;47.90;;;;;;5034216;28;20025;-34
2020/12/16 08:02:22;;;;;;;4.30;1.60;;;20.80;47.90;;;;;;5033331;28;20030;-40
2020/12/16 08:04:59;;;;;;;2.63;1.70;;;20.80;47.90;;;;;;5030116;28;20037;-51
2020/12/16 08:07:25;;;;;;;2.13;1.77;;;20.80;47.90;;;;;;5029221;28;20033;-47
2020/12/16 08:09:56;;;;;;;3.78;2.15;;;20.80;47.90;;;;;;5035072;28;20112;-48
2020/12/16 08:12:24;;;;;;;3.03;1.98;;;20.70;47.80;;;;;;5034327;28;20036;-41
2020/12/16 08:14:50;;;;;;;2.95;1.70;;;20.80;47.90;;;;;;5035045;28;20037;-42
2020/12/16 08:17:17;;;;;;;6.13;2.10;;;20.80;47.90;;;;;;5034425;28;20171;-44
2020/12/16 08:19:42;;;;;;;2.38;1.90;;;20.80;47.90;;;;;;5034793;28;20363;-44
2020/12/16 08:22:16;;;;;;;2.78;1.55;;;20.80;47.90;;;;;;5049741;28;20036;-43
2020/12/16 08:24:57;;;;;;;5.32;1.92;;;20.80;48.10;;;;;;5034327;28;20021;-45
2020/12/16 08:27:23;;;;;;;2.15;1.45;;;20.90;48.90;;;;;;5034058;28;20065;-42
2020/12/16 08:29:52;;;;;;;3.47;1.85;;;20.90;49.00;;;;;;5034392;28;20104;-44
2020/12/16 08:32:25;;;;;;;5.55;2.13;;;20.90;49.40;;;;;;5033728;28;20061;-42
2020/12/16 08:34:52;;;;;;;4.85;1.80;;;20.90;49.50;;;;;;5029185;28;20399;-42
2020/12/16 08:37:21;;;;;;;4.55;1.83;;;20.90;49.50;;;;;;5034522;28;20054;-42
2020/12/16 08:39:49;;;;;;;3.38;2.10;;;20.90;49.70;;;;;;5032223;28;20021;-43
2020/12/16 08:42:24;;;;;;;2.92;1.85;;;20.90;49.70;;;;;;5032722;28;20549;-43
2020/12/16 08:44:50;;;;;;;3.22;1.90;;;20.80;49.60;;;;;;5049236;28;20113;-44
2020/12/16 08:47:26;;;;;;;3.70;2.08;;;20.90;49.70;;;;;;5032982;28;20032;-44
2020/12/16 08:49:52;;;;;;;3.30;2.00;;;20.80;49.60;;;;;;5027611;28;20033;-41
2020/12/16 08:52:18;;;;;;;2.65;1.73;;;20.90;49.60;;;;;;5033744;28;20025;-46
2020/12/16 08:54:44;;;;;;;3.67;1.60;;;20.80;49.60;;;;;;5026057;28;20462;-42
2020/12/16 08:57:11;;;;;;;3.85;2.10;;;20.80;49.60;;;;;;5034437;28;20112;-41
2020/12/16 08:59:37;;;;;;;4.07;1.80;;;20.80;49.50;;;;;;5033039;28;20029;-44
2020/12/16 09:02:03;;;;;;;4.15;2.08;;;20.80;49.70;;;;;;5033969;28;20033;-44
2020/12/16 09:04:29;;;;;;;2.08;1.80;;;20.90;49.60;;;;;;5030613;28;20087;-53
2020/12/16 09:07:06;;;;;;;4.72;2.00;;;20.90;49.80;;;;;;5027794;28;20032;-43
2020/12/16 09:09:33;;;;;;;4.07;1.70;;;20.90;50.00;;;;;;5031821;28;20053;-43
2020/12/16 09:11:59;;;;;;;5.22;3.15;;;20.90;50.00;;;;;;5033327;28;20451;-46
2020/12/16 09:14:25;;;;;;;5.10;2.20;;;20.90;50.10;;;;;;5032781;28;20076;-40
2020/12/16 09:16:51;;;;;;;4.40;2.40;;;20.90;50.30;;;;;;5033927;28;20121;-40
2020/12/16 09:19:25;;;;;;;5.63;2.67;;;20.90;50.30;;;;;;5033311;28;20113;-53
2020/12/16 09:21:52;;;;;;;4.75;2.70;;;20.90;50.40;;;;;;5034005;28;20467;-48
2020/12/16 09:24:22;;;;;;;6.03;2.80;;;21.00;50.60;;;;;;5033825;28;20047;-44
2020/12/16 09:26:50;;;;;;;6.15;2.65;;;21.00;50.50;;;;;;5019167;28;20043;-48
2020/12/16 09:29:26;;;;;;;7.07;2.58;;;21.00;50.50;;;;;;5031253;28;20029;-40
2020/12/16 09:32:07;;;;;;;6.45;2.78;;;21.00;50.50;;;;;;5032767;28;20172;-44
2020/12/16 09:34:53;;;;;;;4.70;2.92;;;20.90;50.50;;;;;;5032372;28;20155;-42
2020/12/16 09:37:24;;;;;;;5.32;2.53;;;20.90;50.50;;;;;;5031987;28;20034;-46
2020/12/16 09:39:50;;;;;;;7.03;3.00;;;20.90;50.60;;;;;;5032520;28;20031;-44
2020/12/16 09:42:18;;;;;;;7.22;2.70;;;20.90;50.60;;;;;;5033016;28;20030;-39
2020/12/16 09:44:44;;;;;;;7.22;2.70;;;20.90;50.80;;;;;;5030822;28;20090;-50
2020/12/16 09:47:20;;;;;;;6.45;2.83;;;20.90;50.60;;;;;;5033251;28;20026;-39
2020/12/16 09:50:03;;;;;;;6.63;2.63;;;20.90;50.50;;;;;;5031769;28;20029;-46
2020/12/16 09:52:36;;;;;;;4.75;2.38;;;20.90;50.50;;;;;;5032381;28;20079;-56
2020/12/16 09:55:36;;;;;;;4.10;2.60;;;21.00;50.50;;;;;;5030122;28;20033;-52
2020/12/16 09:58:04;;;;;;;3.35;2.00;;;20.90;50.40;;;;;;5020331;28;20041;-42
2020/12/16 10:00:31;;;;;;;5.97;2.58;;;21.00;50.40;;;;;;5031208;28;20037;-54
2020/12/16 10:03:02;;;;;;;4.25;2.25;;;20.90;50.40;;;;;;5034499;28;20041;-44
2020/12/16 10:05:28;;;;;;;4.50;2.60;;;21.00;50.40;;;;;;5032159;28;20029;-54
2020/12/16 10:07:54;;;;;;;3.33;2.15;;;21.00;50.40;;;;;;5032455;28;20485;-47
2020/12/16 10:10:21;;;;;;;2.67;1.90;;;21.00;50.50;;;;;;5032817;28;20025;-41
2020/12/16 10:12:48;;;;;;;3.00;2.00;;;21.00;50.50;;;;;;5031344;28;20052;-45
2020/12/16 10:15:14;;;;;;;5.45;2.40;;;21.00;50.30;;;;;;5032471;28;20171;-39
2020/12/16 10:17:39;;;;;;;5.50;2.25;;;20.90;50.20;;;;;;5030678;28;20022;-43
2020/12/16 10:20:06;;;;;;;3.50;1.83;;;20.90;50.10;;;;;;5030066;28;20033;-43
2020/12/16 10:22:32;;;;;;;3.10;2.05;;;20.90;50.10;;;;;;5032277;28;20029;-55
2020/12/16 10:24:57;;;;;;;5.68;2.13;;;20.90;50.10;;;;;;5032042;28;20034;-40
2020/12/16 10:27:23;;;;;;;3.72;2.00;;;20.90;50.00;;;;;;5027012;28;20033;-44
2020/12/16 10:29:49;;;;;;;3.78;2.15;;;20.90;49.90;;;;;;5027571;28;20068;-45
2020/12/16 10:32:15;;;;;;;3.67;2.10;;;20.90;49.80;;;;;;5031463;28;20125;-45
2020/12/16 10:34:41;;;;;;;2.17;1.60;;;20.90;49.80;;;;;;5030952;28;20041;-44
2020/12/16 10:37:06;;;;;;;3.90;2.05;;;20.90;49.90;;;;;;5032692;28;20551;-41
2020/12/16 10:39:32;;;;;;;3.13;2.05;;;20.90;49.80;;;;;;5032149;28;20030;-44
2020/12/16 10:41:58;;;;;;;2.70;1.80;;;20.90;49.70;;;;;;5030324;28;20211;-43
2020/12/16 10:44:27;;;;;;;2.83;1.83;;;20.90;49.80;;;;;;5025250;28;20448;-44
2020/12/16 10:46:54;;;;;;;5.90;2.20;;;20.90;49.60;;;;;;5030632;28;20029;-42
2020/12/16 10:49:22;;;;;;;2.95;1.85;;;20.90;49.70;;;;;;5032254;28;20429;-45
2020/12/16 10:51:47;;;;;;;3.00;2.40;;;20.90;49.50;;;;;;5031096;28;20033;-42
2020/12/16 10:54:14;;;;;;;2.63;2.20;;;20.90;49.30;;;;;;5031266;28;20471;-42
2020/12/16 10:56:39;;;;;;;3.78;2.10;;;20.90;49.40;;;;;;5030743;28;20026;-55
2020/12/16 10:59:05;;;;;;;3.58;2.28;;;20.90;49.40;;;;;;5031556;28;20500;-44
2020/12/16 11:01:37;;;;;;;2.75;1.77;;;20.90;49.40;;;;;;5031874;28;20386;-46
2020/12/16 11:04:09;;;;;;;2.40;1.67;;;20.90;49.30;;;;;;5030775;28;20038;-41
2020/12/16 11:06:47;;;;;;;3.70;1.70;;;20.90;49.40;;;;;;5030632;28;20026;-36
2020/12/16 11:09:15;;;;;;;3.83;2.47;;;20.90;49.30;;;;;;5031848;28;20525;-47
2020/12/16 11:11:42;;;;;;;2.70;1.60;;;20.90;49.30;;;;;;5031728;28;20481;-55
2020/12/16 11:14:08;;;;;;;2.33;1.77;;;20.90;49.30;;;;;;5024074;28;20135;-41
2020/12/16 11:16:34;;;;;;;3.63;2.47;;;20.90;49.20;;;;;;5031370;28;20033;-45
2020/12/16 11:19:00;;;;;;;2.83;1.80;;;20.90;49.20;;;;;;5030015;28;20379;-43
2020/12/16 11:21:26;;;;;;;3.40;1.90;;;20.90;49.20;;;;;;5030107;28;20037;-42
2020/12/16 11:23:53;;;;;;;4.90;2.53;;;20.90;49.20;;;;;;5029802;28;20087;-42
2020/12/16 11:26:19;;;;;;;4.18;1.95;;;20.90;49.10;;;;;;5030708;28;20030;-44
2020/12/16 11:28:45;;;;;;;2.47;1.95;;;20.90;49.20;;;;;;5021727;28;20026;-60
2020/12/16 11:31:10;;;;;;;3.13;1.85;;;20.90;49.10;;;;;;5030604;28;20025;-39
2020/12/16 11:33:36;;;;;;;2.72;1.90;;;21.00;49.40;;;;;;5031225;28;20041;-39
2020/12/16 11:36:07;;;;;;;2.78;1.80;;;21.00;50.10;;;;;;5030541;28;20458;-45
2020/12/16 11:38:33;;;;;;;2.08;1.67;;;21.00;49.60;;;;;;5030353;28;20021;-49
2020/12/16 11:40:58;;;;;;;4.82;2.33;;;21.00;49.70;;;;;;5030017;28;20040;-41
2020/12/16 11:43:24;;;;;;;6.22;2.17;;;21.00;49.90;;;;;;5027056;28;20025;-47
2020/12/16 11:45:53;;;;;;;4.45;2.35;;;21.00;49.50;;;;;;5028776;28;20030;-59
2020/12/16 11:48:18;;;;;;;4.28;2.10;;;21.00;49.40;;;;;;5029575;28;20390;-48
2020/12/16 11:50:44;;;;;;;7.68;2.95;;;21.00;49.70;;;;;;5030935;28;20022;-40
2020/12/16 11:53:10;;;;;;;3.67;2.78;;;21.00;49.40;;;;;;5029722;28;20025;-44
2020/12/16 11:55:36;;;;;;;7.47;3.00;;;21.00;48.20;;;;;;5030697;28;20036;-47
2020/12/16 11:58:01;;;;;;;4.57;3.03;;;21.00;48.30;;;;;;5029872;28;20024;-43
2020/12/16 12:00:27;;;;;;;3.75;2.65;;;21.00;49.70;;;;;;5031155;28;20061;-48
2020/12/16 12:02:53;;;;;;;7.30;4.18;;;21.00;49.40;;;;;;5031212;28;20057;-44
2020/12/16 12:05:18;;;;;;;4.22;3.00;;;21.10;49.20;;;;;;5029864;28;20045;-43
2020/12/16 12:07:44;;;;;;;4.90;2.90;;;21.00;49.30;;;;;;5031041;28;20529;-57
2020/12/16 12:10:10;;;;;;;5.57;3.03;;;21.00;49.90;;;;;;5029118;28;20026;-46
2020/12/16 12:12:36;;;;;;;5.07;2.78;;;21.00;50.00;;;;;;5031138;28;20112;-44
2020/12/16 12:15:02;;;;;;;6.75;2.65;;;21.00;50.60;;;;;;5024145;28;20541;-34
2020/12/16 12:17:27;;;;;;;6.15;2.90;;;21.00;50.30;;;;;;5025860;28;20442;-45
2020/12/16 12:19:53;;;;;;;5.80;2.92;;;21.00;50.40;;;;;;5016927;28;20053;-42
2020/12/16 12:22:19;;;;;;;4.82;2.42;;;21.00;50.50;;;;;;5027784;28;20031;-39
2020/12/16 12:24:45;;;;;;;4.63;2.13;;;21.00;50.70;;;;;;5029879;28;20036;-50
2020/12/16 12:27:10;;;;;;;5.18;2.90;;;21.00;50.70;;;;;;5030082;28;20029;-40
2020/12/16 12:29:36;;;;;;;8.63;2.50;;;21.00;50.80;;;;;;5029917;28;20580;-43
2020/12/16 12:32:02;;;;;;;4.82;2.50;;;21.00;50.80;;;;;;5030082;28;20438;-36
2020/12/16 12:34:27;;;;;;;4.63;2.83;;;21.00;50.80;;;;;;5029436;28;20030;-41
2020/12/16 12:36:54;;;;;;;3.28;2.38;;;21.00;50.80;;;;;;5029868;28;20034;-36
2020/12/16 12:39:19;;;;;;;4.18;2.42;;;21.00;50.80;;;;;;5029477;28;20441;-51
2020/12/16 12:41:45;;;;;;;2.67;2.00;;;21.00;50.90;;;;;;5030507;28;20025;-43
2020/12/16 12:44:11;;;;;;;5.82;2.30;;;21.00;50.90;;;;;;5033196;28;20041;-33
2020/12/16 12:46:37;;;;;;;3.90;2.17;;;21.00;50.90;;;;;;5032867;28;20041;-40
2020/12/16 12:49:03;;;;;;;3.08;2.10;;;21.00;50.80;;;;;;5029506;28;20124;-37
2020/12/16 12:51:30;;;;;;;3.25;2.38;;;21.00;50.80;;;;;;5029189;28;20108;-39